createdAt,value
2017-12-21T00:00:50.773Z,1026.68
2017-12-21T00:01:51.193Z,1026.63
2017-12-21T00:02:51.615Z,1026.58
2017-12-21T00:03:52.037Z,1026.58
2017-12-21T00:04:52.459Z,1026.63
2017-12-21T00:05:52.882Z,1026.60
2017-12-21T00:06:53.331Z,1026.65
2017-12-21T00:07:53.729Z,1026.63
2017-12-21T00:08:54.151Z,1026.67
2017-12-21T00:09:54.573Z,1026.65
2017-12-21T00:10:54.997Z,1026.61
2017-12-21T00:11:55.421Z,1026.58
2017-12-21T00:12:55.848Z,1026.56
2017-12-21T00:13:56.263Z,1026.52
2017-12-21T00:14:56.691Z,1026.52
2017-12-21T00:15:57.105Z,1026.45
2017-12-21T00:16:57.527Z,1026.40
2017-12-21T00:17:57.968Z,1026.33
2017-12-21T00:18:58.371Z,1026.23
2017-12-21T00:19:58.796Z,1026.18
2017-12-21T00:20:59.211Z,1026.09
2017-12-21T00:21:59.642Z,1026.08
2017-12-21T00:23:00.091Z,1026.09
2017-12-21T00:24:00.503Z,1026.01
2017-12-21T00:25:00.904Z,1026.00
2017-12-21T00:26:01.327Z,1026.05
2017-12-21T00:27:01.748Z,1026.05
2017-12-21T00:28:02.171Z,1026.05
2017-12-21T00:29:02.595Z,1026.13
2017-12-21T00:30:03.025Z,1026.09
2017-12-21T00:31:03.444Z,1026.10
2017-12-21T00:32:03.859Z,1026.13
2017-12-21T00:33:04.349Z,1026.13
2017-12-21T00:34:04.707Z,1026.08
2017-12-21T00:35:05.126Z,1026.09
2017-12-21T00:36:05.550Z,1026.15
2017-12-21T00:37:05.973Z,1026.15
2017-12-21T00:38:06.393Z,1026.13
2017-12-21T00:39:06.815Z,1026.12
2017-12-21T00:40:07.234Z,1026.12
2017-12-21T00:41:07.664Z,1026.09
2017-12-21T00:42:08.138Z,1026.03
2017-12-21T00:43:08.506Z,1025.99
2017-12-21T00:44:08.924Z,1026.04
2017-12-21T00:45:09.347Z,1026.00
2017-12-21T00:46:09.772Z,1025.94
2017-12-21T00:47:10.195Z,1025.87
2017-12-21T00:48:10.618Z,1025.83
2017-12-21T00:49:11.037Z,1025.83
2017-12-21T00:50:11.457Z,1025.89
2017-12-21T00:51:11.885Z,1025.88
2017-12-21T00:52:12.301Z,1025.84
2017-12-21T00:53:12.737Z,1025.86
2017-12-21T00:54:13.151Z,1025.81
2017-12-21T00:55:13.573Z,1025.86
2017-12-21T00:56:13.990Z,1025.90
2017-12-21T00:57:14.414Z,1025.87
2017-12-21T00:58:14.839Z,1025.88
2017-12-21T00:59:15.263Z,1025.90
2017-12-21T01:00:15.691Z,1025.90
2017-12-21T01:01:16.114Z,1025.86
2017-12-21T01:02:16.526Z,1025.84
2017-12-21T01:03:16.950Z,1025.86
2017-12-21T01:04:17.377Z,1025.85
2017-12-21T01:05:17.793Z,1025.86
2017-12-21T01:06:18.311Z,1025.82
2017-12-21T01:12:28.161Z,1025.49
2017-12-21T01:13:28.564Z,1025.59
2017-12-21T01:15:24.127Z,1025.62
2017-12-21T01:16:24.536Z,1025.66
2017-12-21T01:18:20.049Z,1025.67
2017-12-21T01:19:20.476Z,1025.68
2017-12-21T01:21:15.084Z,1025.70
2017-12-21T01:22:15.489Z,1025.72
2017-12-21T01:24:10.050Z,1025.75
2017-12-21T01:25:10.444Z,1025.77
2017-12-21T01:26:10.866Z,1025.78
2017-12-21T01:27:11.289Z,1025.80
2017-12-21T01:28:11.708Z,1025.79
2017-12-21T01:29:12.134Z,1025.84
2017-12-21T01:30:12.584Z,1025.84
2017-12-21T01:31:12.975Z,1025.83
2017-12-21T01:32:13.399Z,1025.82
2017-12-21T01:33:13.819Z,1025.77
2017-12-21T01:34:14.240Z,1025.75
2017-12-21T01:35:14.664Z,1025.71
2017-12-21T01:36:15.086Z,1025.72
2017-12-21T01:37:15.516Z,1025.67
2017-12-21T01:38:15.934Z,1025.64
2017-12-21T01:39:16.355Z,1025.60
2017-12-21T01:40:16.777Z,1025.66
2017-12-21T01:41:17.199Z,1025.63
2017-12-21T01:42:17.628Z,1025.59
2017-12-21T01:43:18.046Z,1025.62
2017-12-21T01:44:18.464Z,1025.60
2017-12-21T01:45:18.893Z,1025.55
2017-12-21T01:46:19.309Z,1025.62
2017-12-21T01:47:19.738Z,1025.55
2017-12-21T01:48:20.155Z,1025.64
2017-12-21T01:49:20.580Z,1025.63
2017-12-21T01:50:21.005Z,1025.67
2017-12-21T01:51:21.420Z,1025.67
2017-12-21T01:52:21.871Z,1025.63
2017-12-21T01:53:22.283Z,1025.69
2017-12-21T01:54:22.689Z,1025.67
2017-12-21T01:55:23.121Z,1025.62
2017-12-21T01:59:41.935Z,1025.58
2017-12-21T02:00:42.352Z,1025.57
2017-12-21T02:02:37.890Z,1025.63
2017-12-21T02:03:38.284Z,1025.59
2017-12-21T02:05:32.871Z,1025.59
2017-12-21T02:06:33.256Z,1025.56
2017-12-21T02:08:27.787Z,1025.49
2017-12-21T02:09:28.220Z,1025.46
2017-12-21T02:11:22.776Z,1025.37
2017-12-21T02:12:23.188Z,1025.38
2017-12-21T02:13:23.611Z,1025.34
2017-12-21T02:14:24.028Z,1025.38
2017-12-21T02:15:24.450Z,1025.35
2017-12-21T02:16:24.890Z,1025.35
2017-12-21T02:17:25.316Z,1025.35
2017-12-21T02:18:25.792Z,1025.40
2017-12-21T02:19:33.311Z,1025.39
2017-12-21T02:21:20.700Z,1025.38
2017-12-21T02:22:21.105Z,1025.38
2017-12-21T02:24:15.666Z,1025.37
2017-12-21T02:25:16.072Z,1025.41
2017-12-21T02:27:10.623Z,1025.33
2017-12-21T02:28:11.034Z,1025.30
2017-12-21T02:30:05.557Z,1025.31
2017-12-21T02:31:05.986Z,1025.31
2017-12-21T02:33:00.547Z,1025.33
2017-12-21T02:34:00.963Z,1025.32
2017-12-21T02:35:55.486Z,1025.29
2017-12-21T02:36:55.912Z,1025.23
2017-12-21T02:38:50.467Z,1025.17
2017-12-21T02:39:50.875Z,1025.18
2017-12-21T02:41:46.430Z,1025.20
2017-12-21T02:42:46.858Z,1025.18
2017-12-21T02:44:41.434Z,1025.17
2017-12-21T02:45:41.838Z,1025.17
2017-12-21T02:46:42.250Z,1025.17
2017-12-21T02:47:42.678Z,1025.17
2017-12-21T02:48:43.095Z,1025.21
2017-12-21T02:49:43.516Z,1025.20
2017-12-21T02:50:43.939Z,1025.22
2017-12-21T02:51:44.382Z,1025.18
2017-12-21T02:52:44.798Z,1025.24
2017-12-21T02:53:45.339Z,1025.24
2017-12-21T02:56:18.707Z,1025.16
2017-12-21T02:57:19.120Z,1025.13
2017-12-21T02:59:13.680Z,1025.07
2017-12-21T03:00:14.083Z,1025.07
2017-12-21T03:02:09.608Z,1025.01
2017-12-21T03:03:10.026Z,1025.01
2017-12-21T03:05:04.598Z,1025.01
2017-12-21T03:06:05.007Z,1024.98
2017-12-21T03:08:00.514Z,1025.03
2017-12-21T03:09:00.941Z,1025.06
2017-12-21T03:10:55.498Z,1025.12
2017-12-21T03:11:55.904Z,1025.13
2017-12-21T03:13:50.455Z,1025.11
2017-12-21T03:14:50.873Z,1025.12
2017-12-21T03:16:45.394Z,1025.07
2017-12-21T03:17:45.821Z,1025.03
2017-12-21T03:19:40.375Z,1024.99
2017-12-21T03:20:40.787Z,1024.98
2017-12-21T03:22:36.314Z,1025.01
2017-12-21T03:23:36.744Z,1025.02
2017-12-21T03:25:31.296Z,1025.01
2017-12-21T03:26:31.710Z,1024.93
2017-12-21T03:28:26.243Z,1024.90
2017-12-21T03:29:26.673Z,1024.91
2017-12-21T03:31:21.233Z,1024.93
2017-12-21T03:32:21.642Z,1024.92
2017-12-21T03:34:17.189Z,1024.88
2017-12-21T03:35:17.631Z,1024.88
2017-12-21T03:37:13.110Z,1024.86
2017-12-21T03:38:13.539Z,1024.93
2017-12-21T03:40:09.075Z,1024.94
2017-12-21T03:41:09.481Z,1024.96
2017-12-21T03:43:04.011Z,1024.87
2017-12-21T03:44:04.436Z,1024.87
2017-12-21T03:46:03.322Z,1024.80
2017-12-21T03:47:03.731Z,1024.76
2017-12-21T03:48:59.535Z,1024.78
2017-12-21T03:50:06.893Z,1024.75
2017-12-21T03:53:29.491Z,1024.73
2017-12-21T03:54:29.909Z,1024.73
2017-12-21T03:56:24.462Z,1024.73
2017-12-21T03:57:24.872Z,1024.70
2017-12-21T03:59:19.426Z,1024.63
2017-12-21T04:00:19.836Z,1024.65
2017-12-21T04:02:14.396Z,1024.61
2017-12-21T04:03:14.804Z,1024.60
2017-12-21T04:05:09.338Z,1024.55
2017-12-21T04:06:09.769Z,1024.53
2017-12-21T04:08:04.327Z,1024.44
2017-12-21T04:09:04.770Z,1024.46
2017-12-21T04:10:05.161Z,1024.42
2017-12-21T04:11:05.582Z,1024.47
2017-12-21T04:12:06.009Z,1024.52
2017-12-21T04:13:06.429Z,1024.50
2017-12-21T04:14:06.855Z,1024.45
2017-12-21T04:15:07.278Z,1024.43
2017-12-21T04:16:07.695Z,1024.42
2017-12-21T04:17:08.119Z,1024.43
2017-12-21T04:18:08.545Z,1024.42
2017-12-21T04:19:08.965Z,1024.44
2017-12-21T04:20:09.389Z,1024.37
2017-12-21T04:21:09.806Z,1024.42
2017-12-21T04:22:10.228Z,1024.37
2017-12-21T04:23:10.654Z,1024.39
2017-12-21T04:24:11.077Z,1024.38
2017-12-21T04:25:11.504Z,1024.37
2017-12-21T04:26:11.922Z,1024.38
2017-12-21T04:27:12.347Z,1024.37
2017-12-21T04:28:12.766Z,1024.43
2017-12-21T04:29:13.195Z,1024.41
2017-12-21T04:30:13.621Z,1024.38
2017-12-21T04:31:14.037Z,1024.40
2017-12-21T04:32:14.462Z,1024.39
2017-12-21T04:33:14.884Z,1024.37
2017-12-21T04:34:15.373Z,1024.34
2017-12-21T04:35:15.732Z,1024.38
2017-12-21T04:36:16.148Z,1024.38
2017-12-21T04:37:16.572Z,1024.41
2017-12-21T04:38:16.999Z,1024.46
2017-12-21T04:39:17.418Z,1024.42
2017-12-21T04:40:17.849Z,1024.42
2017-12-21T04:41:18.276Z,1024.46
2017-12-21T04:42:18.694Z,1024.47
2017-12-21T04:43:19.108Z,1024.48
2017-12-21T04:44:19.551Z,1024.44
2017-12-21T04:45:19.957Z,1024.45
2017-12-21T04:46:20.395Z,1024.45
2017-12-21T04:47:20.807Z,1024.46
2017-12-21T04:48:21.226Z,1024.43
2017-12-21T04:49:21.645Z,1024.41
2017-12-21T04:50:22.110Z,1024.43
2017-12-21T04:51:22.496Z,1024.43
2017-12-21T04:52:22.915Z,1024.39
2017-12-21T04:53:23.340Z,1024.44
2017-12-21T04:54:23.763Z,1024.39
2017-12-21T04:55:24.211Z,1024.46
2017-12-21T04:56:24.610Z,1024.46
2017-12-21T04:57:25.033Z,1024.47
2017-12-21T04:58:25.457Z,1024.50
2017-12-21T04:59:25.879Z,1024.44
2017-12-21T05:00:26.308Z,1024.42
2017-12-21T05:01:26.736Z,1024.38
2017-12-21T05:02:27.153Z,1024.39
2017-12-21T05:03:27.571Z,1024.40
2017-12-21T05:04:27.992Z,1024.35
2017-12-21T05:05:28.424Z,1024.37
2017-12-21T05:08:01.933Z,1024.36
2017-12-21T05:09:02.336Z,1024.32
2017-12-21T05:10:56.892Z,1024.29
2017-12-21T05:11:57.304Z,1024.30
2017-12-21T05:13:52.830Z,1024.29
2017-12-21T05:14:53.260Z,1024.30
2017-12-21T05:15:53.746Z,1024.27
2017-12-21T05:16:54.106Z,1024.32
2017-12-21T05:17:54.526Z,1024.30
2017-12-21T05:18:54.949Z,1024.26
2017-12-21T05:19:55.371Z,1024.24
2017-12-21T05:20:55.796Z,1024.25
2017-12-21T05:21:56.217Z,1024.26
2017-12-21T05:22:56.642Z,1024.28
2017-12-21T05:23:57.069Z,1024.31
2017-12-21T05:24:57.496Z,1024.29
2017-12-21T05:25:57.935Z,1024.29
2017-12-21T05:26:58.331Z,1024.27
2017-12-21T05:27:58.758Z,1024.24
2017-12-21T05:28:59.176Z,1024.31
2017-12-21T05:29:59.610Z,1024.27
2017-12-21T05:31:00.029Z,1024.29
2017-12-21T05:32:00.451Z,1024.31
2017-12-21T05:33:00.971Z,1024.32
2017-12-21T05:34:01.298Z,1024.30
2017-12-21T05:35:01.717Z,1024.28
2017-12-21T05:36:02.143Z,1024.26
2017-12-21T05:37:02.567Z,1024.31
2017-12-21T05:38:02.990Z,1024.25
2017-12-21T05:39:03.412Z,1024.26
2017-12-21T05:40:03.835Z,1024.28
2017-12-21T05:41:04.262Z,1024.22
2017-12-21T05:42:04.681Z,1024.20
2017-12-21T05:43:05.106Z,1024.23
2017-12-21T05:44:05.532Z,1024.22
2017-12-21T05:45:05.956Z,1024.18
2017-12-21T05:46:06.374Z,1024.19
2017-12-21T05:47:06.799Z,1024.18
2017-12-21T05:48:07.212Z,1024.18
2017-12-21T05:49:07.655Z,1024.20
2017-12-21T05:50:08.090Z,1024.23
2017-12-21T05:51:08.494Z,1024.22
2017-12-21T05:53:42.996Z,1024.18
2017-12-21T05:54:43.453Z,1024.17
2017-12-21T05:55:43.840Z,1024.14
2017-12-21T05:56:44.246Z,1024.15
2017-12-21T05:57:44.669Z,1024.16
2017-12-21T05:58:45.090Z,1024.18
2017-12-21T05:59:45.525Z,1024.17
2017-12-21T06:00:45.938Z,1024.16
2017-12-21T06:01:46.361Z,1024.13
2017-12-21T06:02:46.787Z,1024.11
2017-12-21T06:03:47.208Z,1024.10
2017-12-21T06:04:47.638Z,1024.13
2017-12-21T06:05:48.055Z,1024.10
2017-12-21T06:06:48.478Z,1024.05
2017-12-21T06:07:48.992Z,1024.06
2017-12-21T06:08:49.317Z,1024.08
2017-12-21T06:09:49.745Z,1024.06
2017-12-21T06:10:50.172Z,1024.08
2017-12-21T06:11:50.595Z,1024.04
2017-12-21T06:12:51.022Z,1024.00
2017-12-21T06:13:51.448Z,1024.02
2017-12-21T06:14:51.865Z,1024.05
2017-12-21T06:15:52.290Z,1023.97
2017-12-21T06:18:29.165Z,1024.03
2017-12-21T06:19:29.572Z,1023.99
2017-12-21T06:21:24.199Z,1024.00
2017-12-21T06:22:24.543Z,1023.96
2017-12-21T06:24:19.092Z,1023.98
2017-12-21T06:25:19.501Z,1023.99
2017-12-21T06:27:14.043Z,1024.04
2017-12-21T06:28:14.468Z,1024.02
2017-12-21T06:30:10.019Z,1023.96
2017-12-21T06:31:10.430Z,1023.97
2017-12-21T06:33:05.944Z,1023.94
2017-12-21T06:34:06.372Z,1023.95
2017-12-21T06:35:06.797Z,1023.95
2017-12-21T06:37:40.320Z,1023.98
2017-12-21T06:38:40.726Z,1023.95
2017-12-21T06:40:36.260Z,1023.97
2017-12-21T06:41:36.668Z,1023.93
2017-12-21T06:43:31.223Z,1023.90
2017-12-21T06:44:31.642Z,1023.90
2017-12-21T06:45:32.066Z,1023.87
2017-12-21T06:46:32.486Z,1023.79
2017-12-21T06:47:32.910Z,1023.86
2017-12-21T06:48:33.343Z,1023.86
2017-12-21T06:49:33.761Z,1023.86
2017-12-21T06:50:34.196Z,1023.85
2017-12-21T06:51:34.609Z,1023.83
2017-12-21T06:52:35.026Z,1023.86
2017-12-21T06:53:35.506Z,1023.83
2017-12-21T06:54:35.875Z,1023.85
2017-12-21T06:55:36.298Z,1023.81
2017-12-21T06:56:36.722Z,1023.82
2017-12-21T06:57:37.150Z,1023.81
2017-12-21T06:58:37.565Z,1023.84
2017-12-21T06:59:38.071Z,1023.85
2017-12-21T07:00:38.405Z,1023.86
2017-12-21T07:02:35.120Z,1023.90
2017-12-21T07:03:35.521Z,1023.84
2017-12-21T07:05:30.585Z,1023.89
2017-12-21T07:06:31.001Z,1023.91
2017-12-21T07:08:25.534Z,1023.93
2017-12-21T07:09:25.971Z,1023.89
2017-12-21T07:11:20.525Z,1023.91
2017-12-21T07:12:20.957Z,1023.93
2017-12-21T07:14:15.542Z,1023.95
2017-12-21T07:15:15.909Z,1023.97
2017-12-21T07:17:10.457Z,1023.98
2017-12-21T07:18:10.876Z,1023.99
2017-12-21T07:19:11.293Z,1024.01
2017-12-21T07:20:11.716Z,1024.03
2017-12-21T07:21:12.146Z,1024.08
2017-12-21T07:22:12.569Z,1024.04
2017-12-21T07:23:12.990Z,1024.02
2017-12-21T07:24:13.415Z,1024.05
2017-12-21T07:25:13.878Z,1024.10
2017-12-21T07:26:14.247Z,1024.07
2017-12-21T07:28:23.150Z,1024.10
2017-12-21T07:29:23.581Z,1024.09
2017-12-21T07:31:18.095Z,1024.09
2017-12-21T07:32:18.534Z,1024.15
2017-12-21T07:34:14.068Z,1024.15
2017-12-21T07:36:47.587Z,1024.17
2017-12-21T07:37:47.998Z,1024.16
2017-12-21T07:39:56.384Z,1024.13
2017-12-21T07:40:56.808Z,1024.12
2017-12-21T07:42:52.349Z,1024.10
2017-12-21T07:45:25.853Z,1024.08
2017-12-21T07:48:15.765Z,1024.11
2017-12-21T07:49:16.178Z,1024.11
2017-12-21T07:52:45.916Z,1024.10
2017-12-21T07:53:46.347Z,1024.08
2017-12-21T07:55:41.812Z,1024.07
2017-12-21T07:56:42.237Z,1024.10
2017-12-21T07:58:51.051Z,1024.02
2017-12-21T08:01:27.098Z,1023.99
2017-12-21T08:05:38.903Z,1023.97
2017-12-21T08:06:39.294Z,1024.00
2017-12-21T08:08:33.860Z,1023.96
2017-12-21T08:09:34.250Z,1024.02
2017-12-21T08:11:28.784Z,1023.96
2017-12-21T08:12:29.214Z,1023.94
2017-12-21T08:16:11.515Z,1023.83
2017-12-21T08:17:11.862Z,1023.88
2017-12-21T08:19:06.408Z,1023.92
2017-12-21T08:20:06.810Z,1023.91
2017-12-21T08:22:01.357Z,1023.87
2017-12-21T08:23:01.802Z,1023.86
2017-12-21T08:24:56.346Z,1023.90
2017-12-21T08:25:56.767Z,1023.86
2017-12-21T08:27:52.279Z,1023.86
2017-12-21T08:28:52.719Z,1023.84
2017-12-21T08:30:47.258Z,1023.81
2017-12-21T08:31:47.678Z,1023.80
2017-12-21T08:34:22.159Z,1023.81
2017-12-21T08:35:22.563Z,1023.82
2017-12-21T08:37:31.582Z,1023.83
2017-12-21T08:38:32.023Z,1023.81
2017-12-21T08:40:27.554Z,1023.85
2017-12-21T08:41:27.965Z,1023.82
2017-12-21T08:42:28.388Z,1023.90
2017-12-21T08:43:28.813Z,1023.77
2017-12-21T08:44:29.234Z,1023.78
2017-12-21T08:45:29.663Z,1023.79
2017-12-21T08:46:30.081Z,1023.80
2017-12-21T08:47:30.494Z,1023.74
2017-12-21T08:48:30.928Z,1023.72
2017-12-21T08:49:31.351Z,1023.80
2017-12-21T08:50:31.773Z,1023.83
2017-12-21T08:51:32.272Z,1023.82
2017-12-21T08:52:32.613Z,1023.87
2017-12-21T08:54:27.209Z,1023.83
2017-12-21T08:55:27.593Z,1023.83
2017-12-21T08:58:02.117Z,1023.88
2017-12-21T08:59:02.524Z,1023.84
2017-12-21T09:00:58.061Z,1023.85
2017-12-21T09:01:58.491Z,1023.88
2017-12-21T09:03:54.008Z,1023.88
2017-12-21T09:04:54.433Z,1023.88
2017-12-21T09:07:00.952Z,1023.91
2017-12-21T09:08:01.358Z,1023.92
2017-12-21T09:09:55.914Z,1023.95
2017-12-21T09:10:56.425Z,1023.94
2017-12-21T09:12:51.879Z,1023.94
2017-12-21T09:13:52.291Z,1023.97
2017-12-21T09:15:46.824Z,1023.96
2017-12-21T09:16:47.265Z,1024.02
2017-12-21T09:17:47.703Z,1023.95
2017-12-21T09:18:48.102Z,1023.97
2017-12-21T09:19:48.523Z,1024.00
2017-12-21T09:20:48.951Z,1023.96
2017-12-21T09:21:49.370Z,1023.96
2017-12-21T09:22:49.799Z,1023.92
2017-12-21T09:23:50.389Z,1024.02
2017-12-21T09:24:50.737Z,1023.99
2017-12-21T09:27:36.593Z,1024.00
2017-12-21T09:28:37.004Z,1023.98
2017-12-21T09:30:31.554Z,1024.02
2017-12-21T09:31:31.985Z,1024.06
2017-12-21T09:35:35.077Z,1024.08
2017-12-21T09:36:35.497Z,1024.08
2017-12-21T09:38:30.043Z,1024.13
2017-12-21T09:39:30.454Z,1024.13
2017-12-21T09:41:24.997Z,1024.11
2017-12-21T09:42:25.433Z,1024.13
2017-12-21T09:44:19.991Z,1024.12
2017-12-21T09:45:20.395Z,1024.14
2017-12-21T09:47:14.947Z,1024.18
2017-12-21T09:48:15.358Z,1024.22
2017-12-21T09:50:10.908Z,1024.28
2017-12-21T09:51:11.318Z,1024.28
2017-12-21T09:53:05.853Z,1024.21
2017-12-21T09:54:06.285Z,1024.22
2017-12-21T09:57:37.671Z,1024.17
2017-12-21T09:58:38.079Z,1024.16
2017-12-21T10:01:00.256Z,1024.16
2017-12-21T10:02:00.760Z,1024.21
2017-12-21T10:03:55.243Z,1024.19
2017-12-21T10:04:55.647Z,1024.11
2017-12-21T10:06:51.176Z,1024.12
2017-12-21T10:07:51.601Z,1024.12
2017-12-21T10:09:46.172Z,1024.14
2017-12-21T10:10:46.581Z,1024.14
2017-12-21T10:12:41.116Z,1024.15
2017-12-21T10:13:41.547Z,1024.16
2017-12-21T10:15:36.117Z,1024.18
2017-12-21T10:16:36.515Z,1024.15
2017-12-21T10:18:31.057Z,1024.18
2017-12-21T10:19:31.487Z,1024.15
2017-12-21T10:20:31.914Z,1024.13
2017-12-21T10:21:32.339Z,1024.12
2017-12-21T10:22:32.761Z,1024.22
2017-12-21T10:23:33.197Z,1024.21
2017-12-21T10:24:33.614Z,1024.12
2017-12-21T10:25:34.041Z,1024.15
2017-12-21T10:26:34.458Z,1024.19
2017-12-21T10:27:34.888Z,1024.09
2017-12-21T10:28:35.309Z,1024.06
2017-12-21T10:29:35.733Z,1024.05
2017-12-21T10:30:36.157Z,1024.00
2017-12-21T10:31:36.582Z,1024.05
2017-12-21T10:32:37.016Z,1023.98
2017-12-21T10:35:11.517Z,1024.05
2017-12-21T10:36:11.932Z,1024.02
2017-12-21T10:37:12.361Z,1024.02
2017-12-21T10:38:12.784Z,1024.06
2017-12-21T10:39:13.214Z,1024.07
2017-12-21T10:40:13.634Z,1024.02
2017-12-21T10:41:14.054Z,1024.04
2017-12-21T10:42:14.483Z,1024.03
2017-12-21T10:43:14.918Z,1023.93
2017-12-21T10:44:15.349Z,1024.00
2017-12-21T10:45:15.761Z,1024.03
2017-12-21T10:46:16.178Z,1024.01
2017-12-21T10:47:16.601Z,1023.98
2017-12-21T10:48:17.029Z,1024.04
2017-12-21T10:49:17.452Z,1023.99
2017-12-21T10:50:17.878Z,1024.00
2017-12-21T10:51:18.307Z,1024.01
2017-12-21T10:52:18.733Z,1024.02
2017-12-21T10:53:19.156Z,1023.98
2017-12-21T10:54:19.577Z,1023.94
2017-12-21T10:55:20.000Z,1023.98
2017-12-21T10:56:20.426Z,1023.99
2017-12-21T10:57:20.858Z,1023.97
2017-12-21T10:58:21.324Z,1023.97
2017-12-21T10:59:21.697Z,1023.98
2017-12-21T11:00:22.125Z,1023.97
2017-12-21T11:01:22.548Z,1023.99
2017-12-21T11:02:22.981Z,1023.92
2017-12-21T11:03:23.396Z,1023.91
2017-12-21T11:04:23.828Z,1023.92
2017-12-21T11:05:24.248Z,1023.87
2017-12-21T11:06:24.674Z,1023.91
2017-12-21T11:07:25.111Z,1023.86
2017-12-21T11:08:25.519Z,1023.88
2017-12-21T11:09:25.968Z,1023.80
2017-12-21T11:10:26.372Z,1023.82
2017-12-21T11:11:26.815Z,1023.84
2017-12-21T11:12:27.223Z,1023.82
2017-12-21T11:13:27.649Z,1023.84
2017-12-21T11:14:28.152Z,1023.86
2017-12-21T11:18:36.457Z,1023.82
2017-12-21T11:19:36.871Z,1023.87
2017-12-21T11:21:32.415Z,1023.88
2017-12-21T11:22:32.829Z,1023.86
2017-12-21T11:24:27.388Z,1023.90
2017-12-21T11:25:27.804Z,1023.93
2017-12-21T11:27:22.395Z,1023.87
2017-12-21T11:28:22.778Z,1023.91
2017-12-21T11:30:36.441Z,1023.91
2017-12-21T11:31:36.853Z,1023.91
2017-12-21T11:33:31.406Z,1023.90
2017-12-21T11:34:31.818Z,1023.92
2017-12-21T11:36:26.363Z,1023.92
2017-12-21T11:37:26.801Z,1023.89
2017-12-21T11:39:21.351Z,1023.83
2017-12-21T11:40:21.763Z,1023.74
2017-12-21T11:42:16.303Z,1023.74
2017-12-21T11:43:16.729Z,1023.72
2017-12-21T11:45:11.294Z,1023.81
2017-12-21T11:46:11.725Z,1023.83
2017-12-21T11:48:11.706Z,1023.80
2017-12-21T11:50:45.187Z,1023.90
2017-12-21T11:51:45.614Z,1023.90
2017-12-21T11:53:40.168Z,1023.96
2017-12-21T11:54:40.578Z,1023.93
2017-12-21T11:56:35.126Z,1023.99
2017-12-21T11:57:35.566Z,1023.99
2017-12-21T11:59:30.114Z,1024.04
2017-12-21T12:00:30.524Z,1024.02
2017-12-21T12:02:25.080Z,1024.07
2017-12-21T12:03:25.511Z,1024.02
2017-12-21T12:05:20.074Z,1023.94
2017-12-21T12:06:20.483Z,1023.94
2017-12-21T12:08:15.038Z,1023.99
2017-12-21T12:12:56.688Z,1023.95
2017-12-21T12:13:57.082Z,1024.02
2017-12-21T12:16:18.689Z,1023.95
2017-12-21T12:17:19.099Z,1023.93
2017-12-21T12:19:13.653Z,1023.96
2017-12-21T12:20:14.067Z,1023.96
2017-12-21T12:22:08.616Z,1023.98
2017-12-21T12:23:09.034Z,1023.94
2017-12-21T12:25:03.603Z,1023.96
2017-12-21T12:26:04.012Z,1023.94
2017-12-21T12:27:58.590Z,1024.02
2017-12-21T12:28:58.993Z,1024.01
2017-12-21T12:30:54.625Z,1024.06
2017-12-21T12:33:28.114Z,1024.08
2017-12-21T12:34:28.602Z,1024.09
2017-12-21T12:36:23.094Z,1024.14
2017-12-21T12:37:23.515Z,1024.14
2017-12-21T12:39:18.089Z,1024.12
2017-12-21T12:40:18.494Z,1024.15
2017-12-21T12:42:13.026Z,1024.13
2017-12-21T12:43:13.467Z,1024.16
2017-12-21T12:45:07.970Z,1024.17
2017-12-21T12:46:08.448Z,1024.10
2017-12-21T12:47:08.823Z,1024.14
2017-12-21T12:48:09.249Z,1024.21
2017-12-21T12:49:09.676Z,1024.20
2017-12-21T12:50:10.105Z,1024.22
2017-12-21T12:51:10.523Z,1024.18
2017-12-21T12:52:10.952Z,1024.22
2017-12-21T12:53:11.395Z,1024.09
2017-12-21T12:54:11.797Z,1024.20
2017-12-21T12:56:45.333Z,1024.12
2017-12-21T12:57:45.742Z,1024.07
2017-12-21T12:59:40.288Z,1024.10
2017-12-21T13:00:40.718Z,1024.12
2017-12-21T13:01:41.134Z,1024.06
2017-12-21T13:02:41.558Z,1024.11
2017-12-21T13:03:41.982Z,1024.04
2017-12-21T13:04:42.406Z,1024.07
2017-12-21T13:05:42.834Z,1024.03
2017-12-21T13:06:43.258Z,1024.03
2017-12-21T13:07:43.678Z,1024.04
2017-12-21T13:08:44.103Z,1024.00
2017-12-21T13:09:44.526Z,1024.05
2017-12-21T13:10:44.951Z,1024.06
2017-12-21T13:11:45.382Z,1024.05
2017-12-21T13:12:45.854Z,1024.11
2017-12-21T13:13:46.247Z,1024.12
2017-12-21T13:28:23.820Z,1024.14
2017-12-21T13:29:24.222Z,1024.19
2017-12-21T13:31:18.763Z,1024.10
2017-12-21T13:32:19.193Z,1024.13
2017-12-21T13:34:14.791Z,1024.09
2017-12-21T13:35:15.206Z,1024.16
2017-12-21T13:37:10.743Z,1024.17
2017-12-21T13:38:11.173Z,1024.08
2017-12-21T13:40:06.860Z,1024.05
2017-12-21T13:41:07.353Z,1024.05
2017-12-21T13:43:03.193Z,1024.04
2017-12-21T13:44:03.930Z,1024.05
2017-12-21T13:45:57.704Z,1024.01
2017-12-21T13:46:58.446Z,1024.00
2017-12-21T13:48:52.710Z,1023.98
2017-12-21T13:49:53.126Z,1023.97
2017-12-21T13:50:54.569Z,1023.97
2017-12-21T13:51:53.906Z,1024.07
2017-12-21T13:52:54.359Z,1024.02
2017-12-21T13:53:55.416Z,1023.99
2017-12-21T13:54:55.192Z,1024.01
2017-12-21T13:55:55.793Z,1023.99
2017-12-21T13:56:56.028Z,1024.01
2017-12-21T13:57:56.467Z,1023.94
2017-12-21T13:58:56.894Z,1024.00
2017-12-21T13:59:57.318Z,1024.01
2017-12-21T14:00:57.769Z,1023.93
2017-12-21T14:01:58.158Z,1023.96
2017-12-21T14:02:58.587Z,1023.97
2017-12-21T14:03:59.015Z,1024.01
2017-12-21T14:04:59.428Z,1024.03
2017-12-21T14:05:59.855Z,1024.04
2017-12-21T14:07:00.280Z,1024.04
2017-12-21T14:08:00.702Z,1024.03
2017-12-21T14:09:01.124Z,1023.99
2017-12-21T14:10:01.554Z,1024.03
2017-12-21T14:11:01.981Z,1024.09
2017-12-21T14:12:02.405Z,1024.10
2017-12-21T14:13:02.826Z,1024.11
2017-12-21T14:14:03.254Z,1024.14
2017-12-21T14:15:03.668Z,1024.18
2017-12-21T14:16:04.090Z,1024.17
2017-12-21T14:17:04.523Z,1024.21
2017-12-21T14:18:04.941Z,1024.21
2017-12-21T14:19:05.366Z,1024.26
2017-12-21T14:20:05.791Z,1024.29
2017-12-21T14:21:06.212Z,1024.33
2017-12-21T14:22:06.638Z,1024.35
2017-12-21T14:23:07.058Z,1024.37
2017-12-21T14:24:07.484Z,1024.46
2017-12-21T14:25:07.909Z,1024.53
2017-12-21T14:26:08.339Z,1024.56
2017-12-21T14:27:08.761Z,1024.55
2017-12-21T14:28:09.184Z,1024.56
2017-12-21T14:29:09.600Z,1024.56
2017-12-21T14:30:10.057Z,1024.52
2017-12-21T14:31:10.467Z,1024.51
2017-12-21T14:32:10.886Z,1024.57
2017-12-21T14:33:11.319Z,1024.46
2017-12-21T14:34:11.763Z,1024.44
2017-12-21T14:35:12.148Z,1024.43
2017-12-21T14:36:12.608Z,1024.43
2017-12-21T14:37:13.008Z,1024.43
2017-12-21T14:38:13.422Z,1024.44
2017-12-21T14:39:13.871Z,1024.38
2017-12-21T14:40:14.299Z,1024.35
2017-12-21T14:41:14.770Z,1024.33
2017-12-21T14:42:15.137Z,1024.22
2017-12-21T14:43:15.566Z,1024.22
2017-12-21T14:44:16.007Z,1024.21
2017-12-21T14:45:16.409Z,1024.26
2017-12-21T14:46:16.847Z,1024.32
2017-12-21T14:47:17.278Z,1024.31
2017-12-21T14:48:17.683Z,1024.39
2017-12-21T14:51:40.382Z,1024.60
2017-12-21T14:58:05.212Z,1024.87
2017-12-21T15:00:40.343Z,1024.88
2017-12-21T15:06:58.223Z,1024.83
2017-12-21T15:09:27.910Z,1024.78
2017-12-21T15:15:13.699Z,1024.76
2017-12-21T15:18:29.099Z,1024.89
2017-12-21T15:19:30.013Z,1024.90
2017-12-21T15:23:28.107Z,1024.96
2017-12-21T15:26:24.931Z,1024.96
2017-12-21T15:29:36.346Z,1025.04
2017-12-21T15:30:38.313Z,1024.98
2017-12-21T15:33:39.961Z,1024.99
2017-12-21T15:34:40.779Z,1024.93
2017-12-21T15:40:21.379Z,1024.96
2017-12-21T15:45:10.789Z,1025.07
2017-12-21T15:47:44.931Z,1025.16
2017-12-21T15:48:45.373Z,1025.09
2017-12-21T15:50:39.961Z,1025.10
2017-12-21T15:51:40.311Z,1025.16
2017-12-21T15:53:35.900Z,1025.20
2017-12-21T15:54:36.299Z,1025.24
2017-12-21T15:56:30.905Z,1025.21
2017-12-21T15:57:31.298Z,1025.21
2017-12-21T15:59:26.977Z,1025.30
2017-12-21T16:00:27.410Z,1025.28
2017-12-21T16:02:22.966Z,1025.23
2017-12-21T16:03:23.417Z,1025.23
2017-12-21T16:05:17.906Z,1025.31
2017-12-21T16:06:18.335Z,1025.33